Time;durP1;ratioP1;P1;durP2;ratioP2;P2;SDS_P1;SDS_P2;PMS_P1;PMS_P2;Temp;Humidity;BMP_temperature;BMP_pressure;BME280_temperature;BME280_humidity;BME280_pressure;Samples;Min_cycle;Max_cycle;Signal;HPM_P1;HPM_P2
2022/11/10 00:02:43;;;;;;;8.63;6.10;;;11.30;99.90;;;;;;5073810;28;20577;-74
2022/11/10 00:05:30;;;;;;;13.37;6.57;;;11.30;99.90;;;;;;5076662;28;20425;-75
2022/11/10 00:08:16;;;;;;;9.43;6.57;;;11.20;99.90;;;;;;5077825;28;20419;-75
2022/11/10 00:11:06;;;;;;;10.37;6.30;;;11.20;99.90;;;;;;5077530;28;20532;-74
2022/11/10 00:17:03;;;;;;;11.47;7.30;;;11.20;99.90;;;;;;5077679;28;20420;-75
2022/11/10 00:19:50;;;;;;;8.70;6.90;;;11.20;99.90;;;;;;5077142;28;20546;-74
2022/11/10 00:22:38;;;;;;;10.27;7.33;;;11.10;99.90;;;;;;5077106;28;20472;-74
2022/11/10 00:25:25;;;;;;;12.27;8.37;;;11.10;99.90;;;;;;5077486;28;20901;-74
2022/11/10 00:28:13;;;;;;;11.40;8.40;;;11.10;99.90;;;;;;5077184;28;20821;-74
2022/11/10 00:31:04;;;;;;;9.83;7.67;;;11.10;99.90;;;;;;5077259;28;20436;-75
2022/11/10 00:33:51;;;;;;;11.83;8.17;;;11.10;99.90;;;;;;5077448;28;20523;-74
2022/11/10 00:36:37;;;;;;;11.80;9.00;;;11.10;99.90;;;;;;5077543;28;20428;-75
2022/11/10 00:39:24;;;;;;;10.83;9.03;;;11.10;99.90;;;;;;5076754;28;20424;-74
2022/11/10 00:42:10;;;;;;;13.60;9.20;;;11.00;99.90;;;;;;5077069;28;20514;-74
2022/11/10 00:44:58;;;;;;;15.47;9.30;;;11.10;99.90;;;;;;5076674;28;20472;-74
2022/11/10 00:47:45;;;;;;;13.17;9.27;;;11.00;99.90;;;;;;5076884;28;20440;-75
2022/11/10 00:50:32;;;;;;;11.90;9.93;;;11.00;99.90;;;;;;5076660;28;20438;-75
2022/11/10 00:53:19;;;;;;;13.60;10.37;;;11.00;99.90;;;;;;5076640;28;20456;-74
2022/11/10 00:56:06;;;;;;;11.63;10.43;;;11.00;99.90;;;;;;5077371;28;21017;-74
2022/11/10 00:58:53;;;;;;;11.57;9.00;;;11.00;99.90;;;;;;5078350;28;20424;-74
2022/11/10 01:01:41;;;;;;;12.40;10.50;;;11.00;99.90;;;;;;5077010;28;20420;-74
2022/11/10 01:04:27;;;;;;;15.60;11.40;;;10.90;99.90;;;;;;5076330;28;20839;-74
2022/11/10 01:07:14;;;;;;;12.83;9.90;;;10.90;99.90;;;;;;5076842;28;20432;-74
2022/11/10 01:10:00;;;;;;;15.60;9.70;;;10.90;99.90;;;;;;5076402;28;20420;-74
2022/11/10 01:12:47;;;;;;;12.97;11.00;;;10.90;99.90;;;;;;5076579;28;20539;-74
2022/11/10 01:15:34;;;;;;;12.87;9.43;;;10.90;99.90;;;;;;5076464;28;20455;-74
2022/11/10 01:18:21;;;;;;;13.20;10.60;;;10.90;99.90;;;;;;5076309;28;20487;-74
2022/11/10 01:21:09;;;;;;;16.30;9.93;;;10.80;99.90;;;;;;5076134;28;20456;-74
2022/11/10 01:23:56;;;;;;;16.67;10.43;;;10.80;99.90;;;;;;5076364;28;20456;-74
2022/11/10 01:26:42;;;;;;;15.33;10.57;;;10.80;99.90;;;;;;5076855;28;20421;-73
2022/11/10 01:29:29;;;;;;;12.90;9.20;;;10.80;99.90;;;;;;5076835;28;20449;-75
2022/11/10 01:32:15;;;;;;;14.30;9.67;;;10.80;99.90;;;;;;5076456;28;20462;-75
2022/11/10 01:35:04;;;;;;;14.93;9.10;;;10.80;99.90;;;;;;5076502;28;20432;-75
2022/11/10 01:37:52;;;;;;;16.47;10.70;;;10.80;99.90;;;;;;5076293;28;20468;-75
2022/11/10 01:40:38;;;;;;;14.33;9.67;;;10.70;99.90;;;;;;5076012;28;20471;-75
2022/11/10 01:43:26;;;;;;;11.57;8.90;;;10.70;99.90;;;;;;5076130;28;20561;-75
2022/11/10 01:46:13;;;;;;;15.43;10.53;;;10.70;99.90;;;;;;5076154;28;20498;-74
2022/11/10 01:49:03;;;;;;;14.63;9.80;;;10.70;99.90;;;;;;5076021;28;20424;-74
2022/11/10 01:51:56;;;;;;;15.20;9.03;;;10.70;99.90;;;;;;5075836;28;20468;-75
2022/11/10 01:54:47;;;;;;;11.70;9.60;;;10.70;99.90;;;;;;5076218;28;20421;-74
2022/11/10 01:57:34;;;;;;;13.13;9.87;;;10.70;99.90;;;;;;5075831;28;20451;-74
2022/11/10 02:00:21;;;;;;;14.07;9.40;;;10.70;99.90;;;;;;5075662;28;20479;-74
2022/11/10 02:03:13;;;;;;;17.13;10.47;;;10.60;99.90;;;;;;5075536;28;20467;-74
2022/11/10 02:06:00;;;;;;;13.90;9.07;;;10.60;99.90;;;;;;5075639;28;20429;-74
2022/11/10 02:08:49;;;;;;;13.00;9.47;;;10.60;99.90;;;;;;5075531;28;20413;-75
2022/11/10 02:11:37;;;;;;;13.10;9.40;;;10.60;99.90;;;;;;5075443;28;20437;-75
2022/11/10 02:14:24;;;;;;;15.03;9.90;;;10.60;99.90;;;;;;5075266;28;20929;-74
2022/11/10 02:17:12;;;;;;;13.70;9.00;;;10.50;99.90;;;;;;5075427;28;20421;-74
2022/11/10 02:20:01;;;;;;;13.20;9.73;;;10.60;99.90;;;;;;5075040;28;20995;-74
2022/11/10 02:22:48;;;;;;;12.93;9.30;;;10.50;99.90;;;;;;5074811;28;21045;-74
2022/11/10 02:25:36;;;;;;;15.00;9.60;;;10.50;99.90;;;;;;5074634;28;20547;-74
2022/11/10 02:28:23;;;;;;;15.83;9.30;;;10.50;99.90;;;;;;5074424;28;20467;-74
2022/11/10 02:31:10;;;;;;;14.20;9.67;;;10.50;99.90;;;;;;5075654;28;20441;-74
2022/11/10 02:33:56;;;;;;;15.73;9.50;;;10.50;99.90;;;;;;5075476;28;20771;-74
2022/11/10 02:36:43;;;;;;;16.50;9.77;;;10.50;99.90;;;;;;5075013;28;20536;-74
2022/11/10 02:39:31;;;;;;;12.47;7.40;;;10.40;99.90;;;;;;5074754;28;20934;-74
2022/11/10 02:42:18;;;;;;;16.57;9.07;;;10.40;99.90;;;;;;5074811;28;20814;-74
2022/11/10 02:45:05;;;;;;;15.90;9.47;;;10.40;99.90;;;;;;5074679;28;20456;-74
2022/11/10 02:47:51;;;;;;;17.80;9.77;;;10.40;99.90;;;;;;5074806;28;20444;-74
2022/11/10 02:50:38;;;;;;;18.60;9.70;;;10.40;99.90;;;;;;5074502;28;20425;-74
2022/11/10 02:53:24;;;;;;;12.63;9.60;;;10.40;99.90;;;;;;5074380;28;20463;-74
2022/11/10 02:56:12;;;;;;;16.60;9.27;;;10.40;99.90;;;;;;5074379;28;20440;-74
2022/11/10 02:58:59;;;;;;;16.97;9.23;;;10.30;99.90;;;;;;5074411;28;20517;-74
2022/11/10 03:01:46;;;;;;;14.00;9.40;;;10.30;99.90;;;;;;5074173;28;20538;-74
2022/11/10 03:04:32;;;;;;;13.93;9.30;;;10.30;99.90;;;;;;5074174;28;20448;-74
2022/11/10 03:07:19;;;;;;;18.67;10.60;;;10.30;99.90;;;;;;5074429;28;20424;-74
2022/11/10 03:10:07;;;;;;;17.43;9.90;;;10.30;99.90;;;;;;5074086;28;20432;-74
2022/11/10 03:12:56;;;;;;;15.73;9.37;;;10.30;99.90;;;;;;5073977;28;20484;-74
2022/11/10 03:15:42;;;;;;;17.47;10.07;;;10.30;99.90;;;;;;5073887;28;20771;-74
2022/11/10 03:18:29;;;;;;;18.13;10.27;;;10.30;99.90;;;;;;5074298;28;20421;-74
2022/11/10 03:21:16;;;;;;;15.53;9.13;;;10.30;99.90;;;;;;5073791;28;20463;-74
2022/11/10 03:24:02;;;;;;;17.27;10.63;;;10.30;99.90;;;;;;5073907;28;20421;-74
2022/11/10 03:26:49;;;;;;;18.00;10.17;;;10.20;99.90;;;;;;5074172;28;20440;-74
2022/11/10 03:29:36;;;;;;;15.40;9.80;;;10.20;99.90;;;;;;5074048;28;20424;-74
2022/11/10 03:32:23;;;;;;;17.17;9.77;;;10.20;99.90;;;;;;5074272;28;20456;-74
2022/11/10 03:35:10;;;;;;;14.50;9.60;;;10.20;99.90;;;;;;5073770;28;20506;-74
2022/11/10 03:37:57;;;;;;;12.93;9.63;;;10.20;99.90;;;;;;5073486;28;20449;-74
2022/11/10 03:40:43;;;;;;;18.00;10.50;;;10.20;99.90;;;;;;5073664;28;20424;-74
2022/11/10 03:43:50;;;;;;;16.67;10.07;;;10.20;99.90;;;;;;5073707;28;20784;-74
2022/11/10 03:46:38;;;;;;;16.67;9.50;;;10.20;99.90;;;;;;5073647;28;20424;-74
2022/11/10 03:49:29;;;;;;;14.07;9.90;;;10.10;99.90;;;;;;5073308;28;20888;-73
2022/11/10 03:52:16;;;;;;;13.47;10.57;;;10.10;99.90;;;;;;5073513;28;20460;-74
2022/11/10 03:55:03;;;;;;;15.40;10.90;;;10.10;99.90;;;;;;5073353;28;20544;-74
2022/11/10 03:57:49;;;;;;;18.73;10.63;;;10.10;99.90;;;;;;5073811;28;20441;-74
2022/11/10 04:00:36;;;;;;;17.53;10.40;;;10.10;99.90;;;;;;5073467;28;20483;-74
2022/11/10 04:03:24;;;;;;;17.60;10.63;;;10.10;99.90;;;;;;5073780;28;20498;-74
2022/11/10 04:09:15;;;;;;;14.80;10.50;;;10.10;99.90;;;;;;5073715;28;20420;-74
2022/11/10 04:18:23;;;;;;;16.50;11.20;;;10.00;99.90;;;;;;5073658;28;20467;-74
2022/11/10 04:21:11;;;;;;;17.23;10.43;;;10.00;99.90;;;;;;5073289;28;20507;-74
2022/11/10 04:23:58;;;;;;;16.77;10.63;;;10.00;99.90;;;;;;5073245;28;20448;-74
2022/11/10 04:26:46;;;;;;;19.60;10.60;;;10.00;99.90;;;;;;5072875;28;20823;-74
2022/11/10 04:29:33;;;;;;;15.53;9.90;;;10.00;99.90;;;;;;5073006;28;20421;-74
2022/11/10 04:32:19;;;;;;;17.57;10.70;;;10.00;99.90;;;;;;5073458;28;20956;-74
2022/11/10 04:35:06;;;;;;;18.90;11.30;;;10.00;99.90;;;;;;5073537;28;20525;-74
2022/11/10 04:37:54;;;;;;;13.03;10.40;;;10.00;99.90;;;;;;5075669;28;20502;-74
2022/11/10 04:40:40;;;;;;;18.87;11.10;;;10.00;99.90;;;;;;5074191;28;20425;-74
2022/11/10 04:43:27;;;;;;;18.17;11.37;;;10.00;99.90;;;;;;5073520;28;20602;-74
2022/11/10 04:46:21;;;;;;;13.93;10.80;;;10.00;99.90;;;;;;5073021;28;20563;-74
2022/11/10 04:49:08;;;;;;;13.80;10.30;;;10.00;99.90;;;;;;5073022;28;20420;-74
2022/11/10 04:51:55;;;;;;;17.20;11.00;;;10.00;99.90;;;;;;5076480;28;20463;-74
2022/11/10 04:54:43;;;;;;;16.93;11.17;;;10.00;99.90;;;;;;5076812;28;20517;-74
2022/11/10 04:57:29;;;;;;;15.03;11.17;;;10.00;99.90;;;;;;5076888;28;20826;-74
2022/11/10 05:00:16;;;;;;;17.73;12.00;;;9.90;99.90;;;;;;5076959;28;20428;-74
2022/11/10 05:03:05;;;;;;;16.70;11.50;;;10.00;99.90;;;;;;5076766;28;20467;-74
2022/11/10 05:05:52;;;;;;;14.67;12.33;;;9.90;99.90;;;;;;5076213;28;20506;-74
2022/11/10 05:08:39;;;;;;;15.93;12.00;;;10.00;99.90;;;;;;5076461;28;20463;-73
2022/11/10 05:11:27;;;;;;;19.43;13.77;;;9.90;99.90;;;;;;5076631;28;20440;-74
2022/11/10 05:14:14;;;;;;;22.60;14.60;;;9.90;99.90;;;;;;5076398;28;20946;-74
2022/11/10 05:17:00;;;;;;;18.60;15.30;;;9.90;99.90;;;;;;5076794;28;20806;-74
2022/11/10 05:19:47;;;;;;;21.93;16.00;;;9.90;99.90;;;;;;5076277;28;20436;-74
2022/11/10 05:22:33;;;;;;;19.80;15.43;;;9.90;99.90;;;;;;5076025;28;20602;-74
2022/11/10 05:25:20;;;;;;;19.20;15.90;;;10.00;99.90;;;;;;5076352;28;20499;-74
2022/11/10 05:28:09;;;;;;;24.73;17.00;;;9.90;99.90;;;;;;5076401;28;20425;-74
2022/11/10 05:30:56;;;;;;;23.33;17.50;;;9.90;99.90;;;;;;5076123;28;20433;-74
2022/11/10 05:33:42;;;;;;;24.90;17.90;;;9.90;99.90;;;;;;5075719;28;20502;-74
2022/11/10 05:36:29;;;;;;;19.70;17.60;;;9.90;99.90;;;;;;5076277;28;20552;-74
2022/11/10 05:39:16;;;;;;;20.10;17.23;;;9.90;99.90;;;;;;5076265;28;20514;-74
2022/11/10 05:42:02;;;;;;;20.13;17.83;;;9.90;99.90;;;;;;5076187;28;20464;-74
2022/11/10 05:44:50;;;;;;;24.80;18.90;;;9.90;99.90;;;;;;5075571;28;20487;-74
2022/11/10 05:47:37;;;;;;;23.03;19.43;;;9.90;99.90;;;;;;5075780;28;20425;-74
2022/11/10 05:50:24;;;;;;;24.10;19.27;;;9.90;99.90;;;;;;5075755;28;20413;-74
2022/11/10 05:53:10;;;;;;;30.10;21.60;;;9.90;99.90;;;;;;5075834;28;20552;-74
2022/11/10 05:55:57;;;;;;;26.50;21.07;;;9.90;99.90;;;;;;5075752;28;20416;-74
2022/11/10 05:58:44;;;;;;;26.30;21.10;;;10.00;99.90;;;;;;5075812;28;20417;-74
2022/11/10 06:01:32;;;;;;;26.10;23.30;;;10.00;99.90;;;;;;5075128;28;20528;-74
2022/11/10 06:04:18;;;;;;;26.60;23.73;;;10.00;99.90;;;;;;5075700;28;20471;-74
2022/11/10 06:07:06;;;;;;;31.60;23.70;;;10.00;99.90;;;;;;5075668;28;20530;-74
2022/11/10 06:09:53;;;;;;;28.67;24.50;;;10.00;99.90;;;;;;5075542;28;20917;-74
2022/11/10 06:12:40;;;;;;;33.03;25.40;;;10.00;99.90;;;;;;5075241;28;20464;-74
2022/11/10 06:15:27;;;;;;;28.63;25.50;;;10.00;99.90;;;;;;5075199;28;20424;-74
2022/11/10 06:18:15;;;;;;;29.73;24.23;;;10.10;99.90;;;;;;5075460;28;20516;-74
2022/11/10 06:21:01;;;;;;;29.53;25.20;;;10.10;99.90;;;;;;5075139;28;20421;-75
2022/11/10 06:23:48;;;;;;;30.30;27.00;;;10.10;99.90;;;;;;5075002;28;20444;-74
2022/11/10 06:26:34;;;;;;;31.50;26.87;;;10.10;99.90;;;;;;5074863;28;20535;-74
2022/11/10 06:29:21;;;;;;;29.40;26.20;;;10.10;99.90;;;;;;5075191;28;20421;-74
2022/11/10 06:32:12;;;;;;;28.90;25.70;;;10.10;99.90;;;;;;5075100;28;20506;-74
2022/11/10 06:35:00;;;;;;;30.53;25.87;;;10.10;99.90;;;;;;5074918;28;20420;-74
2022/11/10 06:37:47;;;;;;;27.80;24.80;;;10.20;99.90;;;;;;5074760;28;20417;-74
2022/11/10 06:40:33;;;;;;;30.70;24.80;;;10.20;99.90;;;;;;5074748;28;20500;-74
2022/11/10 06:43:20;;;;;;;28.83;25.73;;;10.20;99.90;;;;;;5074627;28;20591;-74
2022/11/10 06:46:07;;;;;;;31.50;25.60;;;10.20;99.90;;;;;;5074758;28;20551;-74
2022/11/10 06:48:54;;;;;;;32.67;25.10;;;10.20;99.90;;;;;;5074287;28;20432;-74
2022/11/10 06:51:42;;;;;;;29.40;24.53;;;10.20;99.90;;;;;;5074487;28;20424;-74
2022/11/10 06:54:28;;;;;;;28.90;25.63;;;10.20;99.90;;;;;;5074712;28;20448;-74
2022/11/10 06:57:15;;;;;;;29.97;24.47;;;10.30;99.90;;;;;;5074624;28;20443;-73
2022/11/10 07:00:01;;;;;;;27.93;24.00;;;10.30;99.90;;;;;;5074337;28;20432;-73
2022/11/10 07:02:48;;;;;;;29.80;25.53;;;10.30;99.90;;;;;;5074183;28;20827;-74
2022/11/10 07:05:36;;;;;;;31.87;24.07;;;10.30;99.90;;;;;;5074482;28;20416;-74
2022/11/10 07:08:24;;;;;;;30.20;23.87;;;10.40;99.90;;;;;;5074557;28;20897;-74
2022/11/10 07:11:11;;;;;;;31.47;24.83;;;10.40;99.90;;;;;;5074088;28;20439;-74
2022/11/10 07:13:58;;;;;;;29.17;25.23;;;10.40;99.90;;;;;;5074299;28;20427;-74
2022/11/10 07:16:44;;;;;;;27.70;24.77;;;10.50;99.90;;;;;;5074367;28;20413;-74
2022/11/10 07:19:31;;;;;;;30.57;25.60;;;10.50;99.90;;;;;;5073743;28;20413;-73
2022/11/10 07:22:18;;;;;;;28.50;23.67;;;10.50;99.90;;;;;;5073836;28;20518;-73
2022/11/10 07:25:07;;;;;;;26.97;24.07;;;10.50;99.90;;;;;;5073954;28;20416;-74
2022/11/10 07:27:54;;;;;;;27.50;24.50;;;10.60;99.90;;;;;;5073861;28;20452;-74
2022/11/10 07:30:40;;;;;;;29.70;24.30;;;10.50;99.90;;;;;;5074012;28;20417;-74
2022/11/10 07:33:27;;;;;;;28.70;24.67;;;10.60;99.90;;;;;;5074044;28;20545;-74
2022/11/10 07:36:13;;;;;;;30.27;23.30;;;10.60;99.90;;;;;;5074053;28;20429;-74
2022/11/10 07:39:00;;;;;;;27.60;24.60;;;10.70;99.90;;;;;;5074012;28;20425;-74
2022/11/10 07:41:48;;;;;;;28.00;24.57;;;10.70;99.90;;;;;;5073981;28;20924;-73
2022/11/10 07:44:38;;;;;;;26.53;23.00;;;10.70;99.90;;;;;;5074251;28;20499;-74
2022/11/10 07:47:24;;;;;;;29.53;22.40;;;10.70;99.90;;;;;;5073989;28;20468;-74
2022/11/10 07:50:11;;;;;;;26.70;21.87;;;10.80;99.90;;;;;;5073388;28;20432;-74
2022/11/10 07:53:06;;;;;;;33.13;23.27;;;10.80;99.90;;;;;;5073514;28;20476;-74
2022/11/10 07:55:53;;;;;;;26.07;22.93;;;10.80;99.90;;;;;;5074118;28;20463;-74
2022/11/10 07:58:41;;;;;;;32.77;21.93;;;10.90;99.90;;;;;;5073971;28;20421;-74
2022/11/10 08:01:28;;;;;;;27.07;22.00;;;10.90;99.90;;;;;;5073731;28;20420;-75
2022/11/10 08:04:14;;;;;;;29.87;23.10;;;10.90;99.90;;;;;;5073809;28;20424;-74
2022/11/10 08:07:01;;;;;;;29.80;22.83;;;10.90;99.90;;;;;;5073827;28;20582;-74
2022/11/10 08:09:48;;;;;;;28.00;21.83;;;11.00;99.90;;;;;;5073440;28;20440;-74
2022/11/10 08:12:34;;;;;;;27.43;22.10;;;11.00;99.90;;;;;;5074464;28;20869;-74
2022/11/10 08:15:22;;;;;;;30.07;20.70;;;11.00;99.90;;;;;;5074012;28;20559;-74
2022/11/10 08:18:15;;;;;;;26.70;20.40;;;11.10;99.90;;;;;;5075669;28;20429;-74
2022/11/10 08:21:03;;;;;;;26.07;21.20;;;11.10;99.90;;;;;;5074066;28;20447;-75
2022/11/10 08:23:50;;;;;;;26.70;21.03;;;11.20;99.90;;;;;;5073582;28;20444;-74
2022/11/10 08:26:36;;;;;;;27.20;22.03;;;11.20;99.90;;;;;;5077080;28;20447;-75
2022/11/10 08:29:23;;;;;;;28.30;20.47;;;11.20;99.90;;;;;;5077483;28;20429;-75
2022/11/10 08:32:11;;;;;;;21.97;19.00;;;11.20;99.90;;;;;;5077084;28;20480;-75
2022/11/10 08:34:58;;;;;;;24.67;20.37;;;11.30;99.90;;;;;;5077409;28;20428;-75
2022/11/10 08:37:44;;;;;;;25.70;20.10;;;11.30;99.90;;;;;;5077176;28;20425;-74
2022/11/10 08:40:31;;;;;;;23.53;19.10;;;11.30;99.90;;;;;;5077078;28;20436;-74
2022/11/10 08:43:18;;;;;;;24.77;19.60;;;11.30;99.90;;;;;;5076950;28;20931;-74
2022/11/10 08:46:05;;;;;;;22.17;17.50;;;11.40;99.90;;;;;;5076649;28;20448;-75
2022/11/10 08:48:52;;;;;;;21.90;16.83;;;11.40;99.90;;;;;;5076796;28;20452;-75
2022/11/10 08:51:39;;;;;;;23.87;17.63;;;11.40;99.90;;;;;;5077222;28;20429;-75
2022/11/10 08:54:25;;;;;;;23.10;17.40;;;11.50;99.90;;;;;;5077049;28;20425;-75
2022/11/10 08:57:12;;;;;;;25.70;17.50;;;11.50;99.90;;;;;;5076670;28;20428;-74
2022/11/10 08:59:58;;;;;;;23.97;16.53;;;11.60;99.90;;;;;;5076918;28;20421;-74
2022/11/10 09:02:45;;;;;;;20.97;17.13;;;11.60;99.90;;;;;;5076511;28;20550;-74
2022/11/10 09:05:34;;;;;;;19.53;15.97;;;11.60;99.90;;;;;;5076244;28;20487;-74
2022/11/10 09:08:21;;;;;;;30.40;17.23;;;11.60;99.90;;;;;;5076271;28;20523;-74
2022/11/10 09:11:08;;;;;;;19.30;15.60;;;11.70;99.90;;;;;;5076218;28;20421;-74
2022/11/10 09:13:54;;;;;;;19.10;16.93;;;11.70;99.90;;;;;;5076217;28;20499;-74
2022/11/10 09:16:40;;;;;;;23.63;16.97;;;11.70;99.90;;;;;;5076551;28;20420;-74
2022/11/10 09:19:27;;;;;;;19.73;16.03;;;11.80;99.90;;;;;;5076439;28;20443;-74
2022/11/10 09:22:15;;;;;;;19.27;16.17;;;11.80;99.90;;;;;;5076024;28;20488;-75
2022/11/10 09:25:02;;;;;;;19.73;15.87;;;11.80;99.90;;;;;;5076419;28;20471;-74
2022/11/10 09:27:48;;;;;;;20.63;15.30;;;11.90;99.90;;;;;;5075994;28;20536;-76
2022/11/10 09:30:35;;;;;;;21.33;15.00;;;11.90;99.90;;;;;;5076040;28;20787;-75
2022/11/10 09:33:21;;;;;;;21.90;14.70;;;11.90;99.90;;;;;;5076337;28;20550;-75
2022/11/10 09:36:09;;;;;;;20.77;14.37;;;12.00;99.90;;;;;;5075684;28;20448;-75
2022/11/10 09:38:57;;;;;;;18.60;14.10;;;12.00;99.90;;;;;;5075749;28;20514;-75
2022/11/10 09:41:44;;;;;;;22.20;14.80;;;12.10;99.90;;;;;;5075948;28;20488;-76
2022/11/10 09:44:34;;;;;;;19.80;15.00;;;12.10;99.90;;;;;;5076936;28;20503;-75
2022/11/10 09:47:27;;;;;;;15.20;13.60;;;12.10;99.90;;;;;;5077124;28;20452;-75
2022/11/10 09:50:41;;;;;;;23.07;15.13;;;12.20;99.90;;;;;;5076083;28;20428;-75
2022/11/10 09:53:32;;;;;;;21.10;14.33;;;12.20;99.90;;;;;;5076245;28;20471;-75
2022/11/10 09:56:25;;;;;;;20.53;14.43;;;12.30;99.90;;;;;;5076839;28;20421;-75
2022/11/10 09:59:19;;;;;;;22.50;14.50;;;12.30;99.90;;;;;;5076249;28;20429;-75
2022/11/10 10:02:16;;;;;;;19.10;14.17;;;12.40;99.90;;;;;;5075485;28;20947;-75
2022/11/10 10:05:18;;;;;;;17.73;12.80;;;12.40;99.90;;;;;;5076276;28;20954;-75
2022/11/10 10:08:07;;;;;;;21.10;14.23;;;12.50;99.90;;;;;;5075738;28;20806;-75
2022/11/10 10:11:02;;;;;;;16.93;12.50;;;12.60;99.90;;;;;;5075894;28;20823;-75
2022/11/10 10:14:17;;;;;;;18.77;12.90;;;12.60;99.90;;;;;;5076023;28;20428;-75
2022/11/10 10:17:12;;;;;;;21.57;12.83;;;12.70;99.90;;;;;;5075503;28;20467;-75
2022/11/10 10:20:05;;;;;;;16.20;11.10;;;12.80;99.90;;;;;;5075551;28;20503;-75
2022/11/10 10:23:08;;;;;;;16.83;11.87;;;12.90;99.90;;;;;;5075123;28;20495;-74
2022/11/10 10:25:55;;;;;;;16.30;10.97;;;12.90;99.90;;;;;;5075166;28;20420;-74
2022/11/10 10:28:44;;;;;;;15.17;10.53;;;13.00;99.90;;;;;;5074665;28;20569;-75
2022/11/10 10:31:35;;;;;;;16.60;10.60;;;13.00;99.90;;;;;;5074848;28;20563;-75
2022/11/10 10:34:24;;;;;;;13.87;11.20;;;13.10;99.90;;;;;;5075394;28;20417;-75
2022/11/10 10:37:22;;;;;;;18.47;9.90;;;13.10;99.90;;;;;;5075022;28;20494;-74
2022/11/10 10:40:14;;;;;;;13.87;10.07;;;13.10;99.90;;;;;;5074753;28;20555;-75
2022/11/10 10:43:01;;;;;;;15.57;9.63;;;13.10;99.90;;;;;;5074942;28;20476;-75
2022/11/10 10:46:05;;;;;;;12.77;8.80;;;13.10;99.90;;;;;;5074689;28;20429;-75
2022/11/10 10:49:08;;;;;;;13.70;9.40;;;13.10;99.90;;;;;;5073813;28;20455;-74
2022/11/10 10:52:16;;;;;;;17.70;9.47;;;13.10;99.90;;;;;;5074241;28;20464;-75
2022/11/10 10:55:07;;;;;;;15.20;9.80;;;13.20;99.90;;;;;;5074709;28;20934;-74
2022/11/10 10:58:00;;;;;;;12.80;9.23;;;13.20;99.90;;;;;;5074402;28;20418;-74
2022/11/10 11:00:47;;;;;;;20.03;8.93;;;13.30;99.90;;;;;;5074104;28;20848;-74
2022/11/10 11:03:40;;;;;;;16.07;9.63;;;13.30;99.90;;;;;;5074303;28;20565;-74
2022/11/10 11:06:34;;;;;;;15.37;9.97;;;13.30;99.90;;;;;;5074247;28;20429;-75
2022/11/10 11:09:24;;;;;;;12.20;9.47;;;13.40;99.90;;;;;;5074068;28;20499;-75
2022/11/10 11:12:27;;;;;;;17.10;8.77;;;13.40;99.90;;;;;;5074277;28;20988;-74
2022/11/10 11:15:21;;;;;;;17.77;8.97;;;13.40;99.90;;;;;;5074041;28;20462;-74
2022/11/10 11:18:14;;;;;;;14.80;8.83;;;13.50;99.90;;;;;;5074149;28;20417;-74
2022/11/10 11:21:08;;;;;;;13.90;7.93;;;13.50;99.90;;;;;;5074136;28;20445;-76
2022/11/10 11:24:18;;;;;;;13.90;7.33;;;13.50;99.90;;;;;;5074180;28;20437;-74
2022/11/10 11:27:13;;;;;;;14.77;7.33;;;13.60;99.90;;;;;;5073969;28;20807;-75
2022/11/10 11:30:05;;;;;;;15.70;9.00;;;13.60;99.90;;;;;;5074140;28;20583;-75
2022/11/10 11:33:19;;;;;;;18.47;9.03;;;13.70;99.90;;;;;;5073857;28;20464;-74
2022/11/10 11:36:16;;;;;;;14.70;8.10;;;13.70;99.90;;;;;;5074208;28;20417;-75
2022/11/10 11:39:16;;;;;;;12.50;7.40;;;13.70;99.90;;;;;;5074152;28;20472;-75
2022/11/10 11:42:14;;;;;;;11.47;6.70;;;13.80;99.90;;;;;;5073689;28;20460;-74
2022/11/10 11:45:15;;;;;;;13.43;7.70;;;13.80;99.90;;;;;;5073664;28;20468;-75
2022/11/10 11:48:20;;;;;;;12.60;6.80;;;13.80;99.90;;;;;;5073606;28;20419;-74
2022/11/10 11:51:15;;;;;;;15.47;8.33;;;13.80;99.90;;;;;;5073381;28;20967;-74
2022/11/10 11:54:23;;;;;;;16.43;7.20;;;13.90;99.90;;;;;;5073498;28;20421;-75
2022/11/10 11:57:21;;;;;;;16.70;7.70;;;13.90;99.90;;;;;;5077644;28;20444;-74
2022/11/10 12:00:11;;;;;;;17.90;7.00;;;13.90;99.90;;;;;;5074443;28;20417;-75
2022/11/10 12:03:25;;;;;;;14.30;7.80;;;13.90;99.90;;;;;;5074470;28;20519;-74
2022/11/10 12:06:30;;;;;;;12.03;7.10;;;13.90;99.90;;;;;;5053952;28;20993;-75
2022/11/10 12:09:27;;;;;;;18.07;6.80;;;14.00;99.90;;;;;;5073724;28;20534;-75
2022/11/10 12:12:36;;;;;;;16.93;7.10;;;14.00;99.90;;;;;;5073692;28;21058;-74
2022/11/10 12:15:30;;;;;;;16.20;6.60;;;14.00;99.90;;;;;;5073794;28;20433;-75
2022/11/10 12:18:31;;;;;;;12.50;6.50;;;14.10;99.90;;;;;;5073491;28;20511;-75
2022/11/10 12:21:24;;;;;;;12.77;5.90;;;14.10;99.90;;;;;;5074104;28;20999;-75
2022/11/10 12:24:34;;;;;;;15.67;6.00;;;14.10;99.90;;;;;;5074087;28;20479;-75
2022/11/10 12:27:25;;;;;;;14.50;6.00;;;14.10;99.90;;;;;;5074038;28;20811;-75
2022/11/10 12:30:14;;;;;;;9.50;5.70;;;14.10;99.90;;;;;;5073752;28;20503;-75
2022/11/10 12:33:04;;;;;;;14.37;6.53;;;14.10;99.90;;;;;;5073546;28;20464;-75
2022/11/10 12:35:53;;;;;;;12.10;5.10;;;14.20;99.90;;;;;;5074266;28;20429;-75
2022/11/10 12:38:53;;;;;;;12.53;4.87;;;14.20;99.90;;;;;;5073064;28;20424;-75
2022/11/10 12:41:50;;;;;;;20.20;6.17;;;14.20;99.90;;;;;;5074518;28;20455;-75
2022/11/10 12:44:42;;;;;;;10.43;5.70;;;14.20;99.90;;;;;;5074221;28;20464;-75
2022/11/10 12:47:35;;;;;;;14.80;5.07;;;14.20;99.90;;;;;;5074323;28;20425;-75
2022/11/10 12:50:48;;;;;;;13.60;4.70;;;14.20;99.90;;;;;;5073993;28;20460;-75
2022/11/10 12:53:38;;;;;;;11.80;5.10;;;14.20;99.90;;;;;;5074025;28;20456;-75
2022/11/10 12:56:32;;;;;;;10.00;5.07;;;14.20;99.90;;;;;;5074521;28;20479;-75
2022/11/10 12:59:32;;;;;;;14.80;5.63;;;14.30;99.90;;;;;;5073827;28;20504;-75
2022/11/10 13:02:26;;;;;;;10.90;4.43;;;14.30;99.90;;;;;;5073984;28;20503;-75
2022/11/10 13:05:26;;;;;;;10.77;4.13;;;14.30;99.90;;;;;;5073788;28;20495;-75
2022/11/10 13:08:32;;;;;;;10.77;4.33;;;14.30;99.90;;;;;;5073977;28;20938;-75
2022/11/10 13:11:31;;;;;;;11.10;4.43;;;14.40;99.90;;;;;;5074723;28;20440;-75
2022/11/10 13:14:27;;;;;;;10.83;4.40;;;14.40;99.90;;;;;;5077664;28;20768;-75
2022/11/10 13:17:54;;;;;;;10.00;4.37;;;14.40;99.90;;;;;;5077429;28;20488;-75
2022/11/10 13:20:52;;;;;;;12.27;4.07;;;14.40;99.90;;;;;;5077265;28;20416;-75
2022/11/10 13:24:19;;;;;;;14.17;4.10;;;14.40;99.90;;;;;;5077549;28;20483;-75
2022/11/10 13:27:11;;;;;;;13.10;4.17;;;14.40;99.90;;;;;;5077251;28;20543;-75
2022/11/10 13:29:58;;;;;;;16.07;4.67;;;14.40;99.90;;;;;;5076608;28;20468;-75
2022/11/10 13:32:45;;;;;;;10.40;3.97;;;14.40;99.90;;;;;;5076813;28;20480;-75
2022/11/10 13:35:52;;;;;;;14.67;3.83;;;14.40;99.90;;;;;;5077036;28;20507;-74
2022/11/10 13:38:43;;;;;;;14.10;3.80;;;14.40;99.90;;;;;;5077585;28;20440;-75
2022/11/10 13:41:34;;;;;;;13.47;3.90;;;14.40;99.90;;;;;;5076901;28;20432;-75
2022/11/10 13:44:25;;;;;;;9.30;3.77;;;14.40;99.90;;;;;;5077010;28;20428;-75
2022/11/10 13:47:42;;;;;;;8.80;3.40;;;14.40;99.90;;;;;;5077353;28;20540;-75
2022/11/10 13:50:43;;;;;;;14.53;4.20;;;14.40;99.90;;;;;;5076735;28;20460;-75
2022/11/10 13:53:43;;;;;;;11.37;3.60;;;14.30;99.90;;;;;;5076779;28;20456;-74
2022/11/10 13:56:47;;;;;;;11.53;2.90;;;14.40;99.90;;;;;;5076890;28;20517;-75
2022/11/10 13:59:45;;;;;;;14.13;4.30;;;14.40;99.90;;;;;;5077017;28;20420;-75
2022/11/10 14:02:53;;;;;;;11.83;3.73;;;14.40;99.90;;;;;;5076786;28;20523;-75
2022/11/10 14:06:09;;;;;;;10.40;3.90;;;14.40;99.90;;;;;;5076471;28;20417;-75
2022/11/10 14:09:04;;;;;;;8.23;3.40;;;14.40;99.90;;;;;;5076433;28;20770;-75
2022/11/10 14:11:55;;;;;;;13.60;4.73;;;14.40;99.90;;;;;;5076991;28;20973;-75
2022/11/10 14:14:51;;;;;;;12.00;4.53;;;14.40;99.90;;;;;;5076905;28;20425;-75
2022/11/10 14:17:42;;;;;;;8.80;3.70;;;14.40;99.90;;;;;;5076372;28;20425;-75
2022/11/10 14:20:34;;;;;;;7.70;3.37;;;14.40;99.90;;;;;;5075887;28;20514;-75
2022/11/10 14:23:26;;;;;;;13.13;4.40;;;14.40;99.90;;;;;;5075023;28;20492;-75
2022/11/10 14:26:23;;;;;;;8.80;3.77;;;14.40;99.90;;;;;;5076383;28;20552;-75
2022/11/10 14:29:34;;;;;;;12.83;4.00;;;14.40;99.90;;;;;;5076651;28;20792;-75
2022/11/10 14:32:24;;;;;;;9.10;4.17;;;14.40;99.90;;;;;;5076184;28;20460;-75
2022/11/10 14:35:20;;;;;;;11.03;3.43;;;14.40;99.90;;;;;;5075864;28;20432;-75
2022/11/10 14:38:14;;;;;;;12.97;3.63;;;14.40;99.90;;;;;;5076326;28;20421;-75
2022/11/10 14:41:14;;;;;;;14.40;4.10;;;14.50;99.90;;;;;;5076335;28;20416;-75
2022/11/10 14:44:04;;;;;;;11.43;4.70;;;14.40;99.90;;;;;;5075906;28;20548;-75
2022/11/10 14:46:52;;;;;;;13.40;3.90;;;14.40;99.90;;;;;;5075870;28;20420;-75